Time;durP1;ratioP1;P1;durP2;ratioP2;P2;SDS_P1;SDS_P2;PMS_P1;PMS_P2;Temp;Humidity;BMP_temperature;BMP_pressure;BME280_temperature;BME280_humidity;BME280_pressure;Samples;Min_cycle;Max_cycle;Signal;HPM_P1;HPM_P2
2021/09/05 00:00:30;;;;;;;15.93;9.77;;;;;;;15.52;75.17;100399.28;5093857;28;20044;-75
2021/09/05 00:02:59;;;;;;;15.65;9.60;;;;;;;15.43;75.67;100403.53;5094682;28;20039;-78
2021/09/05 00:05:28;;;;;;;17.55;10.27;;;;;;;15.49;75.19;100401.38;5094859;28;20466;-75
2021/09/05 00:07:57;;;;;;;16.35;9.55;;;;;;;15.25;76.27;100402.31;5094918;28;20048;-76
2021/09/05 00:10:25;;;;;;;16.00;9.80;;;;;;;15.41;76.06;100400.13;5094263;28;20408;-75
2021/09/05 00:12:55;;;;;;;15.98;9.18;;;;;;;15.32;76.19;100406.22;5094995;28;20093;-75
2021/09/05 00:15:23;;;;;;;14.48;8.57;;;;;;;15.35;75.47;100406.00;5094245;28;20036;-74
2021/09/05 00:17:55;;;;;;;14.10;8.35;;;;;;;15.58;74.21;100406.88;5094788;28;20070;-75
2021/09/05 00:20:23;;;;;;;12.38;8.25;;;;;;;15.71;72.85;100413.03;5094364;28;20442;-76
2021/09/05 00:22:56;;;;;;;11.68;7.97;;;;;;;15.68;72.98;100415.09;5094489;28;20135;-78
2021/09/05 00:25:25;;;;;;;12.23;8.30;;;;;;;15.90;72.28;100419.63;5094051;28;20044;-75
2021/09/05 00:27:55;;;;;;;12.05;8.93;;;;;;;15.85;72.70;100425.41;5094284;28;20393;-77
2021/09/05 00:30:24;;;;;;;13.48;9.02;;;;;;;15.91;72.50;100421.34;5075817;28;20056;-76
2021/09/05 00:32:53;;;;;;;13.93;8.90;;;;;;;15.88;72.75;100417.06;5094196;28;20040;-74
2021/09/05 00:35:24;;;;;;;14.80;8.95;;;;;;;15.87;73.41;100420.75;5094148;28;20139;-76
2021/09/05 00:37:52;;;;;;;15.48;10.05;;;;;;;15.99;73.25;100425.13;5094473;28;20477;-76
2021/09/05 00:40:20;;;;;;;17.58;9.50;;;;;;;15.89;73.67;100426.84;5093801;28;20083;-75
2021/09/05 00:42:49;;;;;;;14.35;9.30;;;;;;;15.97;73.16;100428.94;5094242;28;20048;-77
2021/09/05 00:45:17;;;;;;;14.93;9.20;;;;;;;15.76;74.10;100430.66;5093677;28;20040;-76
2021/09/05 00:47:45;;;;;;;13.52;9.07;;;;;;;15.67;74.44;100426.84;5094804;28;20467;-77
2021/09/05 00:50:15;;;;;;;13.20;9.02;;;;;;;15.62;74.90;100442.47;5093861;28;20123;-76
2021/09/05 00:52:44;;;;;;;15.32;9.68;;;;;;;15.65;74.91;100444.94;5093872;28;20111;-78
2021/09/05 00:55:12;;;;;;;16.63;9.40;;;;;;;15.71;74.96;100447.13;5093479;28;20071;-76
2021/09/05 00:57:42;;;;;;;15.00;9.23;;;;;;;15.59;75.28;100448.06;5094086;28;20593;-76
2021/09/05 01:00:11;;;;;;;13.93;9.27;;;;;;;15.61;75.58;100446.13;5093554;28;20055;-78
2021/09/05 01:02:42;;;;;;;14.18;9.90;;;;;;;15.46;76.28;100442.78;5093928;28;20127;-76
2021/09/05 01:05:12;;;;;;;15.85;10.63;;;;;;;15.70;76.20;100446.28;5093421;28;20044;-78
2021/09/05 01:07:42;;;;;;;16.23;10.63;;;;;;;15.62;76.21;100447.84;5093764;28;20054;-76
2021/09/05 01:10:13;;;;;;;19.02;11.32;;;;;;;15.57;76.62;100447.34;5093664;28;20101;-78
2021/09/05 01:12:41;;;;;;;15.38;10.85;;;;;;;15.53;77.02;100452.06;5093857;28;20040;-77
2021/09/05 01:15:11;;;;;;;16.67;11.20;;;;;;;15.71;76.25;100447.97;5093413;28;20047;-76
2021/09/05 01:17:39;;;;;;;17.00;10.23;;;;;;;15.61;76.71;100449.69;5093458;28;20411;-76
2021/09/05 01:20:10;;;;;;;17.33;10.32;;;;;;;15.64;76.55;100453.97;5093444;28;20040;-75
2021/09/05 01:22:38;;;;;;;16.70;10.50;;;;;;;15.50;77.64;100459.53;5091435;28;20044;-79
2021/09/05 01:25:09;;;;;;;17.27;10.88;;;;;;;15.57;77.47;100455.41;5072795;28;20040;-81
2021/09/05 01:27:38;;;;;;;14.85;10.40;;;;;;;15.44;78.04;100467.09;5073348;28;20036;-80
2021/09/05 01:30:10;;;;;;;15.23;10.32;;;;;;;15.39;78.64;100469.28;5072912;28;20043;-80
2021/09/05 01:32:38;;;;;;;15.43;10.48;;;;;;;15.34;79.11;100466.06;5073392;28;20066;-81
2021/09/05 01:35:08;;;;;;;15.57;10.88;;;;;;;15.40;78.72;100471.00;5072934;28;20049;-81
2021/09/05 01:37:39;;;;;;;16.02;10.02;;;;;;;15.23;79.80;100471.41;5072935;28;20044;-80
2021/09/05 01:40:08;;;;;;;15.00;10.23;;;;;;;15.28;79.45;100481.81;5072971;28;20052;-80
2021/09/05 01:42:37;;;;;;;15.82;10.18;;;;;;;15.45;78.87;100479.56;5072950;28;20048;-72
2021/09/05 01:45:06;;;;;;;18.08;11.05;;;;;;;15.32;79.26;100483.28;5073012;28;20049;-73
2021/09/05 01:47:36;;;;;;;18.13;10.52;;;;;;;15.26;79.57;100490.00;5072749;28;20619;-76
2021/09/05 01:50:04;;;;;;;14.63;10.38;;;;;;;15.42;79.30;100484.31;5072747;28;20493;-76
2021/09/05 01:52:35;;;;;;;16.05;10.65;;;;;;;15.30;79.45;100488.78;5072779;28;20109;-76
2021/09/05 01:55:03;;;;;;;16.27;10.82;;;;;;;15.21;79.81;100486.81;5072843;28;20041;-76
2021/09/05 01:57:32;;;;;;;15.85;11.02;;;;;;;15.13;80.64;100486.53;5072570;28;20139;-76
2021/09/05 02:00:01;;;;;;;19.13;11.55;;;;;;;15.04;81.45;100492.59;5072720;28;20098;-74
2021/09/05 02:02:29;;;;;;;17.52;10.52;;;;;;;15.10;81.21;100489.44;5072405;28;20052;-74
2021/09/05 02:04:58;;;;;;;14.27;10.38;;;;;;;14.97;82.22;100491.34;5051323;28;20049;-74
2021/09/05 02:07:26;;;;;;;16.88;11.52;;;;;;;14.89;83.63;100497.28;5068905;28;20094;-74
2021/09/05 02:09:54;;;;;;;16.02;11.23;;;;;;;14.98;83.74;100485.00;5072515;28;20048;-74
2021/09/05 02:12:22;;;;;;;17.15;10.90;;;;;;;15.09;83.02;100487.72;5072301;28;20041;-76
2021/09/05 02:14:51;;;;;;;19.50;11.52;;;;;;;15.24;81.76;100491.06;5072824;28;20123;-76
2021/09/05 02:17:20;;;;;;;17.38;10.88;;;;;;;15.13;82.17;100490.06;5072198;28;20476;-76
2021/09/05 02:19:49;;;;;;;17.42;10.60;;;;;;;15.01;82.67;100496.38;5072555;28;20090;-76
2021/09/05 02:22:17;;;;;;;18.20;10.95;;;;;;;14.99;82.99;100502.81;5072065;28;20048;-76
2021/09/05 02:24:45;;;;;;;15.93;11.52;;;;;;;15.00;82.79;100499.16;5074359;28;20052;-77
2021/09/05 02:27:13;;;;;;;20.20;11.20;;;;;;;15.06;82.93;100496.03;5058575;28;20040;-76
2021/09/05 02:29:41;;;;;;;16.40;11.25;;;;;;;15.20;81.34;100495.84;5076436;28;20044;-76
2021/09/05 02:32:12;;;;;;;19.00;11.77;;;;;;;15.06;81.77;100502.25;5076419;28;20044;-76
2021/09/05 02:34:41;;;;;;;20.50;11.27;;;;;;;15.46;78.88;100508.16;5076154;28;20409;-76
2021/09/05 02:37:10;;;;;;;17.77;11.63;;;;;;;15.38;78.98;100507.88;5076430;28;20132;-76
2021/09/05 02:39:38;;;;;;;17.45;11.65;;;;;;;15.15;80.06;100506.94;5058556;28;20493;-76
2021/09/05 02:42:06;;;;;;;17.92;11.77;;;;;;;15.11;80.21;100508.13;5076241;28;20076;-77
2021/09/05 02:44:35;;;;;;;17.67;11.52;;;;;;;15.04;81.70;100512.25;5075846;28;20049;-77
2021/09/05 02:47:04;;;;;;;13.85;9.98;;;;;;;15.41;79.56;100513.00;5076262;28;20047;-77
2021/09/05 02:49:32;;;;;;;15.05;11.32;;;;;;;15.62;77.58;100512.38;5075643;28;20123;-76
2021/09/05 02:52:01;;;;;;;16.42;11.15;;;;;;;15.40;78.05;100511.31;5075875;28;20048;-75
2021/09/05 02:54:30;;;;;;;16.58;11.90;;;;;;;15.59;76.94;100504.53;5057944;28;20374;-74
2021/09/05 02:56:58;;;;;;;15.70;11.50;;;;;;;15.52;77.39;100509.50;5075974;28;20132;-74
2021/09/05 02:59:26;;;;;;;16.85;11.20;;;;;;;15.50;77.65;100513.28;5075339;28;20048;-74
2021/09/05 03:01:54;;;;;;;18.73;11.48;;;;;;;15.41;77.71;100510.31;5075921;28;20058;-75
2021/09/05 03:04:23;;;;;;;18.10;11.30;;;;;;;15.39;77.73;100506.91;5075243;28;20040;-75
2021/09/05 03:06:51;;;;;;;18.20;11.20;;;;;;;15.60;76.37;100508.91;5075524;28;20044;-74
2021/09/05 03:09:21;;;;;;;18.42;12.23;;;;;;;15.66;75.54;100508.50;5075283;28;20045;-75
2021/09/05 03:11:50;;;;;;;17.55;12.35;;;;;;;15.74;73.78;100495.31;5076115;28;20041;-73
2021/09/05 03:14:21;;;;;;;18.65;12.63;;;;;;;15.55;75.76;100508.44;5075494;28;20048;-76
2021/09/05 03:16:49;;;;;;;17.77;12.70;;;;;;;15.52;75.69;100511.34;5075420;28;20040;-77
2021/09/05 03:19:17;;;;;;;18.35;12.52;;;;;;;15.40;76.30;100508.63;5075419;28;20033;-77
2021/09/05 03:21:46;;;;;;;18.92;11.70;;;;;;;15.49;75.63;100516.97;5075267;28;20094;-78
2021/09/05 03:24:14;;;;;;;17.73;11.75;;;;;;;15.58;74.87;100521.63;5074841;28;20056;-76
2021/09/05 03:26:44;;;;;;;20.45;12.15;;;;;;;15.63;74.64;100522.16;5075213;28;20048;-75
2021/09/05 03:29:12;;;;;;;18.23;11.40;;;;;;;15.62;74.74;100524.00;5075424;28;20090;-74
2021/09/05 03:31:40;;;;;;;17.45;11.13;;;;;;;15.55;75.28;100522.72;5075277;28;20139;-70
2021/09/05 03:34:09;;;;;;;19.02;12.05;;;;;;;15.42;76.30;100517.41;5075297;28;20037;-72
2021/09/05 03:36:39;;;;;;;17.92;12.15;;;;;;;15.42;76.33;100525.47;5075102;28;20401;-72
2021/09/05 03:39:07;;;;;;;19.40;11.95;;;;;;;15.32;76.61;100527.16;5075040;28;20473;-73
2021/09/05 03:41:35;;;;;;;18.73;12.23;;;;;;;15.36;76.83;100517.91;5074964;28;20040;-74
2021/09/05 03:44:05;;;;;;;16.88;12.15;;;;;;;15.09;78.36;100525.34;5075002;28;20377;-76
2021/09/05 03:46:34;;;;;;;20.33;12.13;;;;;;;15.03;79.12;100521.28;5074748;28;20052;-76
2021/09/05 03:49:03;;;;;;;18.55;12.23;;;;;;;14.86;80.63;100529.72;5075035;28;20040;-72
2021/09/05 03:51:31;;;;;;;17.88;12.48;;;;;;;14.81;80.79;100532.75;5056711;28;20382;-75
2021/09/05 03:53:59;;;;;;;17.27;11.80;;;;;;;14.93;80.52;100539.03;5074588;28;20040;-76
2021/09/05 03:56:27;;;;;;;17.60;12.23;;;;;;;14.97;80.13;100531.63;5074271;28;20053;-76
2021/09/05 03:58:55;;;;;;;19.50;12.07;;;;;;;15.05;79.67;100539.97;5074667;28;20056;-76
2021/09/05 04:01:25;;;;;;;18.55;12.02;;;;;;;14.95;80.45;100546.97;5074627;28;20056;-76
2021/09/05 04:03:54;;;;;;;17.67;11.40;;;;;;;15.09;79.67;100549.53;5074536;28;20102;-77
2021/09/05 04:06:24;;;;;;;17.75;12.10;;;;;;;15.02;79.65;100545.56;5074432;28;20114;-76
2021/09/05 04:08:55;;;;;;;19.27;12.10;;;;;;;14.96;80.32;100557.66;5074816;28;20048;-78
2021/09/05 04:11:23;;;;;;;19.30;12.55;;;;;;;14.69;81.95;100555.13;5074328;28;20047;-75
2021/09/05 04:13:51;;;;;;;17.67;11.32;;;;;;;14.68;82.17;100566.84;5074495;28;20055;-77
2021/09/05 04:16:19;;;;;;;18.33;11.70;;;;;;;14.71;82.49;100558.56;5074202;28;20075;-77
2021/09/05 04:18:49;;;;;;;16.13;11.80;;;;;;;14.53;83.80;100562.56;5074268;28;20136;-77
2021/09/05 04:21:17;;;;;;;18.38;11.48;;;;;;;14.63;83.31;100566.31;5073967;28;20041;-78
2021/09/05 04:23:45;;;;;;;16.92;11.10;;;;;;;14.65;83.36;100567.03;5085224;28;20462;-77
2021/09/05 04:26:14;;;;;;;17.13;11.23;;;;;;;14.59;84.21;100573.75;5094483;28;20058;-78
2021/09/05 04:28:42;;;;;;;20.17;12.00;;;;;;;14.70;84.05;100581.00;5094510;28;20473;-75
2021/09/05 04:31:10;;;;;;;18.02;12.18;;;;;;;14.55;84.60;100585.63;5094363;28;20067;-77
2021/09/05 04:33:40;;;;;;;21.35;12.25;;;;;;;14.58;85.06;100584.59;5094312;28;20535;-76
2021/09/05 04:36:10;;;;;;;15.77;11.02;;;;;;;14.55;84.96;100582.09;5094458;28;20044;-76
2021/09/05 04:38:38;;;;;;;18.58;11.25;;;;;;;14.38;85.87;100591.34;5093878;28;20040;-76
2021/09/05 04:41:06;;;;;;;19.23;11.90;;;;;;;14.37;86.77;100591.41;5076118;28;20442;-76
2021/09/05 04:43:37;;;;;;;17.98;11.05;;;;;;;14.50;85.99;100586.97;5093874;28;20040;-78
2021/09/05 04:46:05;;;;;;;17.80;10.98;;;;;;;14.50;86.02;100593.19;5093983;28;20048;-76
2021/09/05 04:48:33;;;;;;;16.65;10.88;;;;;;;14.49;86.28;100591.47;5093631;28;20126;-74
2021/09/05 04:51:01;;;;;;;17.55;11.50;;;;;;;14.66;85.37;100600.97;5093853;28;20047;-75
2021/09/05 04:53:33;;;;;;;18.25;11.55;;;;;;;14.57;86.01;100599.84;5093751;28;20128;-74
2021/09/05 04:56:01;;;;;;;15.45;11.07;;;;;;;14.62;86.03;100601.31;5075677;28;20062;-73
2021/09/05 04:58:30;;;;;;;17.13;10.57;;;;;;;14.74;85.45;100605.81;5093457;28;20044;-74
2021/09/05 05:00:58;;;;;;;14.63;10.95;;;;;;;14.81;85.21;100602.56;5093591;28;20548;-73
2021/09/05 05:03:27;;;;;;;15.43;11.02;;;;;;;14.77;85.53;100606.47;5093622;28;20044;-75
2021/09/05 05:06:16;;;;;;;17.35;10.82;;;;;;;14.85;85.42;100612.13;5075764;28;20052;-76
2021/09/05 05:08:51;;;;;;;15.68;10.45;;;;;;;14.97;84.63;100609.53;5093784;28;20059;-78
2021/09/05 05:11:22;;;;;;;16.13;10.05;;;;;;;15.17;83.52;100611.63;5093348;28;20466;-78
2021/09/05 05:13:52;;;;;;;15.98;10.18;;;;;;;15.49;81.86;100614.59;5093930;28;20052;-78
2021/09/05 05:16:22;;;;;;;18.17;11.02;;;;;;;15.49;81.70;100619.13;5093322;28;20046;-77
2021/09/05 05:18:50;;;;;;;15.13;9.93;;;;;;;15.43;81.61;100618.59;5093521;28;20051;-75
2021/09/05 05:21:19;;;;;;;14.70;9.75;;;;;;;15.54;81.81;100627.69;5093460;28;20144;-75
2021/09/05 05:23:47;;;;;;;15.70;10.15;;;;;;;15.62;81.10;100628.00;5093505;28;20056;-77
2021/09/05 05:26:16;;;;;;;16.73;10.27;;;;;;;15.66;81.28;100626.81;5093312;28;20052;-78
2021/09/05 05:28:44;;;;;;;14.07;9.85;;;;;;;15.65;81.21;100625.09;5093178;28;20094;-77
2021/09/05 05:31:14;;;;;;;17.10;10.15;;;;;;;15.74;80.76;100630.63;5093934;28;20036;-76
2021/09/05 05:33:45;;;;;;;14.32;9.48;;;;;;;15.92;79.60;100624.81;5093001;28;20040;-79
2021/09/05 05:36:13;;;;;;;16.88;9.73;;;;;;;16.11;78.64;100632.31;5093405;28;20036;-80
2021/09/05 05:38:44;;;;;;;14.38;9.40;;;;;;;16.31;76.98;100629.81;5074930;28;20172;-76
2021/09/05 05:41:19;;;;;;;14.07;9.73;;;;;;;16.31;76.76;100645.13;5093341;28;20051;-75
2021/09/05 05:43:47;;;;;;;13.73;9.70;;;;;;;16.43;76.35;100630.69;5093519;28;20064;-76
2021/09/05 05:46:15;;;;;;;14.52;9.10;;;;;;;16.48;75.64;100636.56;5092845;28;20048;-77
2021/09/05 05:48:44;;;;;;;15.27;9.25;;;;;;;16.71;74.42;100631.25;5092771;28;20044;-78
2021/09/05 05:51:12;;;;;;;15.18;9.45;;;;;;;16.78;73.50;100636.00;5075407;28;20048;-78
2021/09/05 05:53:40;;;;;;;15.30;9.35;;;;;;;16.58;74.18;100636.69;5092779;28;20060;-75
2021/09/05 05:56:08;;;;;;;14.75;9.60;;;;;;;16.85;72.41;100639.06;5093079;28;20131;-76
2021/09/05 05:58:38;;;;;;;16.17;9.27;;;;;;;16.88;72.14;100636.97;5092883;28;20435;-75
2021/09/05 06:01:09;;;;;;;14.97;9.40;;;;;;;16.99;71.89;100640.66;5097434;28;20036;-77
2021/09/05 06:03:38;;;;;;;14.20;9.38;;;;;;;17.02;70.89;100641.25;5096971;28;20044;-76
2021/09/05 06:06:06;;;;;;;13.52;9.25;;;;;;;17.26;70.21;100642.94;5097378;28;20399;-78
2021/09/05 06:08:35;;;;;;;12.75;9.18;;;;;;;17.45;69.93;100649.38;5096780;28;20090;-77
2021/09/05 06:11:05;;;;;;;16.17;9.45;;;;;;;17.53;68.77;100648.75;5096999;28;20044;-75
2021/09/05 06:13:33;;;;;;;15.35;8.73;;;;;;;17.66;67.53;100654.84;5078523;28;20048;-74
2021/09/05 06:16:03;;;;;;;14.77;9.32;;;;;;;17.78;67.76;100654.84;5096858;28;20094;-71
2021/09/05 06:18:32;;;;;;;14.00;9.10;;;;;;;18.03;63.43;100654.47;5096565;28;20047;-76
2021/09/05 06:21:00;;;;;;;15.05;8.93;;;;;;;18.09;63.67;100659.34;5096319;28;20048;-75
2021/09/05 06:23:28;;;;;;;17.95;8.65;;;;;;;18.34;62.91;100658.13;5095727;28;20197;-79
2021/09/05 06:25:56;;;;;;;11.60;7.32;;;;;;;19.17;53.95;100657.97;5096399;28;20443;-77
2021/09/05 06:28:25;;;;;;;14.27;6.90;;;;;;;19.75;50.46;100650.97;5096003;28;20055;-78
2021/09/05 06:30:53;;;;;;;10.90;7.07;;;;;;;20.33;48.58;100646.38;5096605;28;20040;-75
2021/09/05 06:33:26;;;;;;;10.73;6.28;;;;;;;20.55;46.83;100656.91;5096539;28;20037;-75
2021/09/05 06:35:56;;;;;;;9.65;5.78;;;;;;;20.08;44.83;100652.44;5096081;28;20124;-75
2021/09/05 06:38:24;;;;;;;9.70;5.45;;;;;;;19.59;44.42;100656.94;5096326;28;20086;-80
2021/09/05 06:40:52;;;;;;;8.43;5.10;;;;;;;19.79;44.61;100653.28;5095724;28;20040;-79
2021/09/05 06:43:20;;;;;;;9.98;5.78;;;;;;;19.83;44.36;100673.66;5096680;28;20040;-76
2021/09/05 06:45:48;;;;;;;7.70;5.05;;;;;;;20.26;43.65;100669.63;5078239;28;20062;-78
2021/09/05 06:48:38;;;;;;;10.80;5.53;;;;;;;20.44;43.04;100669.78;5096233;28;20444;-76
2021/09/05 06:51:07;;;;;;;9.63;5.57;;;;;;;20.52;42.61;100673.47;5096488;28;20143;-75
2021/09/05 06:53:35;;;;;;;8.65;5.45;;;;;;;20.71;42.15;100671.72;5096620;28;20392;-77
2021/09/05 06:56:05;;;;;;;9.27;5.07;;;;;;;20.05;41.93;100674.34;5096430;28;20040;-75
2021/09/05 06:58:34;;;;;;;9.45;5.32;;;;;;;19.70;43.14;100676.63;5096450;28;20048;-77
2021/09/05 07:01:04;;;;;;;8.90;5.10;;;;;;;19.65;43.06;100676.19;5096129;28;20058;-77
2021/09/05 07:03:33;;;;;;;9.50;5.03;;;;;;;19.67;42.97;100676.03;5096045;28;20389;-73
2021/09/05 07:06:06;;;;;;;8.10;4.65;;;;;;;19.62;42.90;100686.44;5095768;28;20044;-74
2021/09/05 07:08:35;;;;;;;7.70;5.00;;;;;;;19.60;43.02;100674.91;5095847;28;20051;-73
2021/09/05 07:11:06;;;;;;;10.38;5.13;;;;;;;19.51;43.12;100686.53;5095294;28;20618;-76
2021/09/05 07:13:37;;;;;;;10.68;5.22;;;;;;;19.59;42.99;100689.41;5096066;28;20153;-86
2021/09/05 07:16:05;;;;;;;9.52;5.22;;;;;;;19.50;43.05;100696.50;5095652;28;20445;-77
2021/09/05 07:18:33;;;;;;;7.13;5.18;;;;;;;19.59;43.22;100690.28;5095759;28;20467;-76
2021/09/05 07:21:03;;;;;;;7.80;4.70;;;;;;;19.65;42.24;100703.25;5095509;28;20044;-76
2021/09/05 07:23:33;;;;;;;9.38;5.32;;;;;;;19.63;42.90;100702.53;5095399;28;20157;-74
2021/09/05 07:26:02;;;;;;;10.43;4.75;;;;;;;19.64;42.15;100709.66;5095713;28;20036;-76
2021/09/05 07:28:32;;;;;;;9.70;5.00;;;;;;;19.65;41.37;100700.53;5095370;28;20052;-78
2021/09/05 07:31:01;;;;;;;9.07;4.85;;;;;;;19.69;41.55;100701.13;5095289;28;20408;-74
2021/09/05 07:33:30;;;;;;;8.45;4.95;;;;;;;19.82;40.55;100698.16;5095473;28;20048;-75
2021/09/05 07:35:58;;;;;;;8.23;4.65;;;;;;;19.80;40.73;100703.72;5095547;28;20480;-74
2021/09/05 07:38:28;;;;;;;9.65;4.80;;;;;;;19.73;40.51;100707.97;5094748;28;20047;-79
2021/09/05 07:40:56;;;;;;;8.45;4.82;;;;;;;19.87;40.99;100704.84;5095252;28;20044;-74
2021/09/05 07:43:24;;;;;;;9.55;4.60;;;;;;;19.95;40.73;100706.84;5097808;28;20040;-77
2021/09/05 07:45:52;;;;;;;7.80;4.53;;;;;;;19.79;40.69;100715.53;5078916;28;20052;-70
2021/09/05 07:48:23;;;;;;;8.85;4.65;;;;;;;19.76;40.98;100728.47;5094880;28;20051;-76
2021/09/05 07:50:51;;;;;;;9.05;5.03;;;;;;;19.73;40.85;100724.22;5095008;28;20039;-73
2021/09/05 07:53:19;;;;;;;10.73;5.32;;;;;;;19.83;41.30;100726.94;5094589;28;20377;-74
2021/09/05 07:55:49;;;;;;;8.48;4.72;;;;;;;19.89;41.12;100729.94;5094990;28;20400;-74
2021/09/05 07:58:21;;;;;;;8.00;4.75;;;;;;;19.96;41.38;100733.78;5094533;28;20048;-74
2021/09/05 08:00:51;;;;;;;8.80;5.30;;;;;;;20.17;41.86;100735.50;5076828;28;20048;-73
2021/09/05 08:03:22;;;;;;;8.20;4.82;;;;;;;20.11;42.04;100727.94;5094770;28;20055;-75
2021/09/05 08:05:50;;;;;;;8.77;5.13;;;;;;;20.22;41.07;100735.94;5095081;28;20048;-78
2021/09/05 08:08:21;;;;;;;9.25;5.55;;;;;;;20.20;42.21;100743.34;5094093;28;20036;-77
2021/09/05 08:10:53;;;;;;;8.75;5.30;;;;;;;20.27;41.84;100736.38;5094731;28;20036;-78
2021/09/05 08:13:24;;;;;;;9.90;5.13;;;;;;;20.42;41.98;100743.06;5094702;28;20067;-75
2021/09/05 08:15:52;;;;;;;9.40;5.25;;;;;;;20.47;41.65;100748.94;5094514;28;20040;-71
2021/09/05 08:18:20;;;;;;;8.60;5.18;;;;;;;20.34;41.46;100745.63;5094464;28;20105;-74
2021/09/05 08:20:49;;;;;;;8.05;5.40;;;;;;;20.47;41.83;100748.94;5094220;28;20048;-73
2021/09/05 08:23:17;;;;;;;10.20;5.05;;;;;;;20.54;41.40;100741.91;5092998;28;20465;-75
2021/09/05 08:25:48;;;;;;;8.63;5.72;;;;;;;20.48;42.01;100749.78;5080985;28;20044;-78
2021/09/05 08:28:17;;;;;;;8.88;5.13;;;;;;;20.61;41.77;100753.03;5053646;28;20136;-78
2021/09/05 08:30:47;;;;;;;9.48;4.88;;;;;;;20.60;41.69;100745.91;5054707;28;20049;-77
2021/09/05 08:33:16;;;;;;;7.43;4.70;;;;;;;20.56;41.68;100750.78;5054101;28;20041;-74
2021/09/05 08:35:46;;;;;;;9.20;5.22;;;;;;;20.65;41.09;100753.59;5054139;28;20458;-74
2021/09/05 08:38:15;;;;;;;8.02;4.72;;;;;;;20.68;40.56;100747.91;5053744;28;20477;-73
2021/09/05 08:40:45;;;;;;;7.97;5.25;;;;;;;20.79;40.47;100750.44;5053977;28;20042;-73
2021/09/05 08:43:15;;;;;;;8.27;4.82;;;;;;;20.61;39.90;100755.75;5053394;28;20508;-73
2021/09/05 08:45:46;;;;;;;10.70;5.10;;;;;;;20.80;39.72;100752.16;5073589;28;20047;-73
2021/09/05 08:48:17;;;;;;;9.13;5.40;;;;;;;20.83;39.76;100751.84;5073383;28;20093;-74
2021/09/05 08:50:47;;;;;;;8.27;4.88;;;;;;;20.91;39.96;100764.69;5073587;28;20052;-75
2021/09/05 08:53:18;;;;;;;7.63;4.50;;;;;;;20.97;39.83;100756.84;5073469;28;20067;-74
2021/09/05 08:55:47;;;;;;;8.02;4.82;;;;;;;20.96;39.54;100755.13;5073641;28;20493;-76
2021/09/05 08:58:16;;;;;;;8.10;4.80;;;;;;;21.04;40.10;100754.41;5073222;28;20040;-76
2021/09/05 09:00:49;;;;;;;7.95;4.68;;;;;;;21.14;39.81;100753.34;5073300;28;20075;-75
2021/09/05 09:03:22;;;;;;;10.20;4.97;;;;;;;21.19;39.42;100757.47;5073220;28;20036;-74
2021/09/05 09:05:56;;;;;;;9.60;4.53;;;;;;;21.22;39.06;100749.88;5073466;28;20469;-77
2021/09/05 09:08:24;;;;;;;9.90;5.28;;;;;;;21.29;39.64;100755.59;5072998;28;20045;-81
2021/09/05 09:10:59;;;;;;;11.77;4.95;;;;;;;21.28;38.56;100756.63;5073376;28;20090;-76
2021/09/05 09:13:36;;;;;;;6.55;4.25;;;;;;;21.19;39.02;100750.19;5073010;28;20123;-76
2021/09/05 09:16:08;;;;;;;6.80;4.13;;;;;;;21.09;38.62;100747.50;5073566;28;20124;-76
2021/09/05 09:18:37;;;;;;;7.50;4.47;;;;;;;21.06;38.93;100747.81;5072944;28;20045;-77
2021/09/05 09:21:10;;;;;;;8.93;4.53;;;;;;;21.17;39.80;100748.63;5073516;28;20044;-77
2021/09/05 09:23:40;;;;;;;7.38;4.88;;;;;;;21.49;38.99;100749.09;5083864;28;20063;-76
2021/09/05 09:26:10;;;;;;;8.38;5.00;;;;;;;21.52;39.17;100748.81;5093312;28;20113;-78
2021/09/05 09:28:40;;;;;;;9.85;4.90;;;;;;;21.60;38.02;100745.31;5093654;28;20044;-77
2021/09/05 09:31:15;;;;;;;10.93;4.63;;;;;;;21.66;37.77;100748.28;5093404;28;20044;-75
2021/09/05 09:33:46;;;;;;;12.32;4.85;;;;;;;21.74;38.00;100746.66;5093201;28;20128;-76
2021/09/05 09:36:19;;;;;;;9.18;4.68;;;;;;;21.89;37.17;100745.13;5092950;28;20550;-75
2021/09/05 09:38:54;;;;;;;7.97;4.88;;;;;;;21.98;36.67;100749.63;5093511;28;20050;-70
2021/09/05 09:41:22;;;;;;;9.30;4.85;;;;;;;21.88;36.90;100740.72;5093007;28;20048;-73
2021/09/05 09:43:54;;;;;;;9.35;5.10;;;;;;;21.84;37.79;100744.75;5093213;28;20480;-69
2021/09/05 09:46:25;;;;;;;7.07;4.85;;;;;;;21.77;37.55;100746.34;5075166;28;20093;-70
2021/09/05 09:48:54;;;;;;;6.90;4.53;;;;;;;21.69;37.30;100742.53;5093002;28;20040;-70
2021/09/05 09:51:23;;;;;;;8.38;4.45;;;;;;;21.74;37.66;100746.66;5092965;28;20112;-70
2021/09/05 09:53:52;;;;;;;9.15;4.85;;;;;;;21.90;37.45;100746.84;5092713;28;20488;-70
2021/09/05 09:56:26;;;;;;;10.10;5.07;;;;;;;21.91;37.31;100743.13;5092422;28;20052;-71
2021/09/05 09:58:57;;;;;;;9.93;4.68;;;;;;;22.07;37.60;100740.59;5093100;28;20051;-71
2021/09/05 10:01:31;;;;;;;8.68;4.72;;;;;;;21.96;37.37;100730.78;5092394;28;20064;-71
2021/09/05 10:04:05;;;;;;;7.25;4.72;;;;;;;22.06;37.37;100736.16;5093314;28;20423;-71
2021/09/05 10:06:34;;;;;;;8.23;5.18;;;;;;;22.25;37.37;100729.75;5092588;28;20127;-73
2021/09/05 10:09:05;;;;;;;7.70;4.80;;;;;;;22.41;36.81;100724.44;5092050;28;20040;-70
2021/09/05 10:11:35;;;;;;;7.97;5.00;;;;;;;22.38;37.01;100724.75;5091937;28;20047;-70
2021/09/05 10:14:04;;;;;;;8.05;5.00;;;;;;;22.47;37.49;100731.09;5074803;28;20101;-72
2021/09/05 10:16:34;;;;;;;8.88;5.03;;;;;;;22.44;37.11;100734.16;5092872;28;20043;-70
2021/09/05 10:19:04;;;;;;;8.40;5.32;;;;;;;22.50;36.89;100717.22;5092611;28;20101;-73
2021/09/05 10:21:36;;;;;;;7.93;5.13;;;;;;;22.53;37.29;100733.19;5092277;28;20093;-73
2021/09/05 10:24:14;;;;;;;9.40;5.60;;;;;;;22.50;37.09;100726.22;5092769;28;20052;-72
2021/09/05 10:27:03;;;;;;;8.07;5.43;;;;;;;22.55;37.57;100723.03;5093055;28;20040;-70
2021/09/05 10:29:32;;;;;;;8.25;4.82;;;;;;;22.65;37.18;100721.06;5092458;28;20449;-68
2021/09/05 10:32:03;;;;;;;7.63;4.20;;;;;;;22.63;36.82;100717.66;5092340;28;20542;-70
2021/09/05 10:34:34;;;;;;;8.95;4.93;;;;;;;22.43;36.73;100706.13;5092301;28;20044;-71
2021/09/05 10:37:12;;;;;;;9.32;5.22;;;;;;;22.61;36.79;100722.41;5092873;28;20032;-70
2021/09/05 10:40:08;;;;;;;7.90;4.50;;;;;;;22.76;36.39;100723.50;5092666;28;20055;-73
2021/09/05 10:42:54;;;;;;;9.38;4.78;;;;;;;22.64;36.82;100729.38;5092137;28;20537;-72
2021/09/05 10:45:24;;;;;;;9.65;5.10;;;;;;;22.57;36.41;100721.00;5093357;28;20181;-70
2021/09/05 10:47:56;;;;;;;8.60;4.72;;;;;;;22.60;36.63;100719.84;5096164;28;20044;-69
2021/09/05 10:50:34;;;;;;;10.13;5.15;;;;;;;22.76;36.74;100723.50;5095904;28;20076;-68
2021/09/05 10:53:15;;;;;;;7.00;4.57;;;;;;;22.85;36.36;100724.44;5096050;28;20036;-68
2021/09/05 10:56:10;;;;;;;7.60;4.63;;;;;;;22.84;36.06;100726.31;5095912;28;20068;-68
2021/09/05 10:58:42;;;;;;;9.38;4.93;;;;;;;22.87;36.09;100725.13;5096001;28;20171;-67
2021/09/05 11:01:26;;;;;;;9.93;5.25;;;;;;;22.76;36.42;100731.66;5096129;28;20397;-68
2021/09/05 11:04:25;;;;;;;7.63;5.07;;;;;;;22.97;36.29;100725.91;5094327;28;20058;-68
2021/09/05 11:06:56;;;;;;;10.68;6.00;;;;;;;23.08;36.09;100727.50;5096168;28;20044;-67
2021/09/05 11:09:46;;;;;;;8.43;4.60;;;;;;;22.96;36.00;100737.78;5095536;28;20476;-68
2021/09/05 11:12:24;;;;;;;8.05;4.72;;;;;;;22.94;35.94;100714.47;5096127;28;20048;-68
2021/09/05 11:14:56;;;;;;;8.68;4.70;;;;;;;22.92;35.88;100721.94;5096189;28;20119;-68
2021/09/05 11:17:26;;;;;;;7.50;4.75;;;;;;;22.89;36.19;100716.84;5095840;28;20130;-68
2021/09/05 11:19:58;;;;;;;8.45;5.03;;;;;;;22.76;36.57;100712.63;5096018;28;20051;-68
2021/09/05 11:22:31;;;;;;;7.60;5.18;;;;;;;22.87;36.43;100716.97;5095685;28;20040;-67
2021/09/05 11:25:27;;;;;;;6.57;4.50;;;;;;;23.00;35.94;100716.56;5095737;28;20097;-67
2021/09/05 11:28:05;;;;;;;8.48;4.85;;;;;;;23.02;35.40;100719.97;5095569;28;20131;-67
2021/09/05 11:30:58;;;;;;;7.90;4.80;;;;;;;23.02;36.08;100714.53;5095452;28;20036;-67